createdAt,value
2022-12-18T00:01:41.410Z,101289.95
2022-12-18T00:06:46.576Z,101288.68
2022-12-18T00:11:53.757Z,101288.73
2022-12-18T00:17:00.540Z,101298.70
2022-12-18T00:22:05.539Z,101297.39
2022-12-18T00:27:10.666Z,101305.44
2022-12-18T00:32:16.883Z,101313.30
2022-12-18T00:37:21.866Z,101313.08
2022-12-18T00:42:45.922Z,101316.14
2022-12-18T00:47:50.657Z,101319.88
2022-12-18T00:52:56.124Z,101335.63
2022-12-18T00:58:00.916Z,101341.30
2022-12-18T01:03:06.959Z,101345.06
2022-12-18T01:08:13.096Z,101345.17
2022-12-18T01:13:17.856Z,101352.63
2022-12-18T01:18:22.458Z,101362.23
2022-12-18T01:23:26.846Z,101366.14
2022-12-18T01:28:31.945Z,101368.69
2022-12-18T01:33:37.642Z,101374.85
2022-12-18T01:38:43.298Z,101376.48
2022-12-18T01:43:52.833Z,101380.34
2022-12-18T01:49:01.684Z,101389.52
2022-12-18T01:54:06.252Z,101393.04
2022-12-18T01:59:13.626Z,101403.48
2022-12-18T02:04:27.142Z,101405.31
2022-12-18T02:09:41.535Z,101410.89
2022-12-18T02:15:08.040Z,101413.01
2022-12-18T02:21:03.921Z,101418.03
2022-12-18T02:26:15.299Z,101431.55
2022-12-18T02:31:26.303Z,101435.98
2022-12-18T02:36:33.456Z,101436.15
2022-12-18T02:41:40.025Z,101440.52
2022-12-18T02:46:51.775Z,101445.96
2022-12-18T02:51:59.176Z,101452.39
2022-12-18T02:57:12.623Z,101452.79
2022-12-18T03:02:32.903Z,101457.22
2022-12-18T03:07:51.231Z,101460.73
2022-12-18T03:13:06.563Z,101469.07
2022-12-18T03:18:26.994Z,101474.96
2022-12-18T03:23:36.550Z,101481.82
2022-12-18T03:28:47.096Z,101489.05
2022-12-18T03:34:02.392Z,101493.33
2022-12-18T03:39:05.767Z,101500.67
2022-12-18T03:44:32.327Z,101510.44
2022-12-18T03:49:43.290Z,101517.11
2022-12-18T03:54:49.038Z,101522.67
2022-12-18T03:59:59.962Z,101524.61
2022-12-18T04:05:09.278Z,101520.14
2022-12-18T04:10:14.841Z,101521.73
2022-12-18T04:15:19.624Z,101544.70
2022-12-18T04:20:24.099Z,101538.83
2022-12-18T04:25:28.113Z,101542.57
2022-12-18T04:30:33.197Z,101551.23
2022-12-18T04:35:37.928Z,101560.67
2022-12-18T04:40:42.658Z,101564.38
2022-12-18T04:45:47.585Z,101574.52
2022-12-18T04:50:52.681Z,101580.83
2022-12-18T04:56:06.370Z,101594.30
2022-12-18T05:01:11.987Z,101598.14
2022-12-18T05:06:16.507Z,101599.70
2022-12-18T05:11:22.057Z,101600.70
2022-12-18T05:16:27.240Z,101604.67
2022-12-18T05:21:31.162Z,101608.21
2022-12-18T05:26:36.090Z,101603.30
2022-12-18T05:31:40.750Z,101605.39
2022-12-18T05:36:46.438Z,101613.77
2022-12-18T05:41:50.008Z,101608.72
2022-12-18T05:46:54.763Z,101624.30
2022-12-18T05:51:58.676Z,101623.22
2022-12-18T05:57:02.893Z,101633.58
2022-12-18T06:02:06.628Z,101640.65
2022-12-18T06:07:11.678Z,101644.60
2022-12-18T06:12:16.689Z,101652.05
2022-12-18T06:17:20.354Z,101664.89
2022-12-18T06:22:25.112Z,101675.83
2022-12-18T06:27:28.765Z,101681.18
2022-12-18T06:32:32.832Z,101699.20
2022-12-18T06:37:37.896Z,101700.43
2022-12-18T06:42:42.140Z,101712.49
2022-12-18T06:47:46.165Z,101720.17
2022-12-18T06:52:50.098Z,101725.98
2022-12-18T06:57:54.043Z,101731.17
2022-12-18T07:02:57.715Z,101757.11
2022-12-18T07:08:01.740Z,101758.27
2022-12-18T07:13:05.974Z,101766.55
2022-12-18T07:18:10.229Z,101775.34
2022-12-18T07:23:13.430Z,101797.30
2022-12-18T07:28:17.663Z,101795.63
2022-12-18T07:33:21.607Z,101794.44
2022-12-18T07:38:25.646Z,101788.10
2022-12-18T07:43:29.199Z,101792.53
2022-12-18T07:48:32.921Z,101804.48
2022-12-18T07:53:37.925Z,101809.83
2022-12-18T07:58:43.849Z,101809.13
2022-12-18T08:03:47.451Z,101809.69
2022-12-18T08:08:56.856Z,101818.27
2022-12-18T08:14:00.446Z,101819.85
2022-12-18T08:19:05.682Z,101826.73
2022-12-18T08:24:10.847Z,101825.27
2022-12-18T08:29:19.951Z,101837.25
2022-12-18T08:34:25.519Z,101847.56
2022-12-18T08:39:29.830Z,101842.73
2022-12-18T08:44:41.018Z,101850.54
2022-12-18T08:49:46.075Z,101854.89
2022-12-18T08:54:51.319Z,101863.52
2022-12-18T08:59:56.992Z,101870.27
2022-12-18T09:05:02.253Z,101872.71
2022-12-18T09:10:07.514Z,101886.26
2022-12-18T09:15:11.111Z,101891.30
2022-12-18T09:20:15.468Z,101893.23
2022-12-18T09:25:19.686Z,101894.27
2022-12-18T09:30:23.598Z,101906.46
2022-12-18T09:35:29.006Z,101908.45
2022-12-18T09:40:41.319Z,101901.52
2022-12-18T09:45:55.145Z,101897.52
2022-12-18T09:51:07.256Z,101889.86
2022-12-18T09:56:17.068Z,101894.39
2022-12-18T10:01:24.542Z,101894.86
2022-12-18T10:06:46.761Z,101893.63
2022-12-18T10:12:18.466Z,101892.15
2022-12-18T10:18:06.157Z,101894.22
2022-12-18T10:23:27.807Z,101885.70
2022-12-18T10:28:33.909Z,101893.20
2022-12-18T10:33:37.626Z,101892.92
2022-12-18T10:38:42.444Z,101901.09
2022-12-18T10:43:48.134Z,101904.42
2022-12-18T10:48:56.356Z,101909.45
2022-12-18T10:54:07.833Z,101907.35
2022-12-18T10:59:16.212Z,101907.89
2022-12-18T11:04:22.911Z,101907.06
2022-12-18T11:09:30.411Z,101907.18
2022-12-18T11:14:47.328Z,101898.84
2022-12-18T11:19:58.348Z,101893.01
2022-12-18T11:25:33.217Z,101895.83
2022-12-18T11:30:38.576Z,101899.48
2022-12-18T11:35:49.624Z,101903.30
2022-12-18T11:41:51.752Z,101903.75
2022-12-18T11:47:07.655Z,101893.65
2022-12-18T11:52:37.303Z,101898.78
2022-12-18T11:58:16.164Z,101901.38
2022-12-18T12:03:53.626Z,101900.58
2022-12-18T12:09:18.770Z,101910.72
2022-12-18T12:14:35.274Z,101911.36
2022-12-18T12:20:11.036Z,101905.38
2022-12-18T12:25:31.272Z,101923.42
2022-12-18T12:30:48.648Z,101938.44
2022-12-18T12:36:27.587Z,101940.70
2022-12-18T12:41:54.466Z,101953.14
2022-12-18T12:47:05.270Z,101957.96
2022-12-18T12:52:36.279Z,101955.01
2022-12-18T12:57:47.807Z,101956.39
2022-12-18T13:03:04.395Z,101956.18
2022-12-18T13:08:23.323Z,101962.48
2022-12-18T13:14:02.483Z,101963.10
2022-12-18T13:19:26.889Z,101965.98
2022-12-18T13:24:32.644Z,101965.20
2022-12-18T13:29:43.629Z,101967.27
2022-12-18T13:34:47.693Z,101965.30
2022-12-18T13:39:51.907Z,101965.30
2022-12-18T13:44:55.550Z,101977.34
2022-12-18T13:50:00.011Z,101974.17
2022-12-18T13:55:16.523Z,101979.64
2022-12-18T14:00:24.442Z,101989.50
2022-12-18T14:05:36.904Z,101983.55
2022-12-18T14:10:50.288Z,101982.27
2022-12-18T14:15:55.073Z,101989.64
2022-12-18T14:21:03.090Z,102000.19
2022-12-18T14:26:31.035Z,102006.15
2022-12-18T14:31:34.889Z,102005.63
2022-12-18T14:36:41.511Z,101996.84
2022-12-18T14:41:45.565Z,101993.84
2022-12-18T14:46:52.943Z,101997.21
2022-12-18T14:52:05.261Z,102009.56
2022-12-18T14:57:25.631Z,102000.77
2022-12-18T15:02:31.157Z,102014.15
2022-12-18T15:07:44.990Z,102020.63
2022-12-18T15:13:09.031Z,102019.69
2022-12-18T15:18:23.245Z,102007.92
2022-12-18T15:23:29.730Z,102007.02
2022-12-18T15:28:39.518Z,102016.22
2022-12-18T15:34:22.619Z,102021.95
2022-12-18T15:39:27.509Z,102024.43
2022-12-18T15:44:32.199Z,102038.20
2022-12-18T15:49:37.356Z,102029.48
2022-12-18T15:55:01.873Z,102037.65
2022-12-18T18:41:00.917Z,102030.67
2022-12-18T18:46:06.420Z,102032.55
2022-12-18T18:51:13.942Z,102035.95
2022-12-18T19:01:53.520Z,102045.87
2022-12-18T19:06:59.166Z,102044.06
2022-12-18T19:12:23.801Z,102060.23
2022-12-18T19:17:30.735Z,102070.23
2022-12-18T19:22:36.467Z,102075.23
2022-12-18T19:27:40.309Z,102079.05
2022-12-18T19:32:43.629Z,102088.56
2022-12-18T19:37:46.883Z,102084.34
2022-12-18T19:42:50.712Z,102087.98
2022-12-18T19:47:57.511Z,102088.48
2022-12-18T19:53:05.505Z,102070.70
2022-12-18T19:58:12.410Z,102061.84
2022-12-18T20:03:25.970Z,102066.48
2022-12-18T20:08:34.430Z,102068.15
2022-12-18T20:13:39.640Z,102066.40
2022-12-18T20:18:44.795Z,102045.21
2022-12-18T20:23:49.244Z,102030.44
2022-12-18T20:28:55.743Z,102022.63
2022-12-18T20:34:01.778Z,102014.70
2022-12-18T20:39:10.937Z,102017.45
2022-12-18T20:44:23.718Z,102013.21
2022-12-18T20:49:29.232Z,102007.67
2022-12-18T20:54:33.773Z,102009.98
2022-12-18T20:59:43.342Z,102028.87
2022-12-18T21:04:52.372Z,102026.83
2022-12-18T21:09:58.511Z,102027.55
2022-12-18T21:15:07.120Z,102037.13
2022-12-18T21:20:17.299Z,102030.49
2022-12-18T21:25:22.837Z,102021.65
2022-12-18T21:30:29.247Z,102028.99
2022-12-18T21:35:34.188Z,102028.60
2022-12-18T21:40:40.044Z,102027.27
2022-12-18T21:45:44.696Z,102024.02
2022-12-18T21:50:50.038Z,102022.26
2022-12-18T21:56:03.146Z,102016.20
2022-12-18T22:01:09.434Z,102010.15
2022-12-18T22:06:14.165Z,102008.79
2022-12-18T22:11:19.616Z,102010.60
2022-12-18T22:16:27.108Z,102010.89
2022-12-18T22:21:33.695Z,102007.91
2022-12-18T22:26:40.124Z,101995.86
2022-12-18T22:31:45.596Z,101993.80
2022-12-18T22:36:51.420Z,101997.97
2022-12-18T22:41:56.795Z,101989.23
2022-12-18T22:47:06.011Z,101985.87
2022-12-18T22:52:11.774Z,101975.46
2022-12-18T22:57:18.735Z,101971.90
2022-12-18T23:02:24.325Z,101969.58
2022-12-18T23:07:29.020Z,101957.03
2022-12-18T23:12:38.065Z,101949.34
2022-12-18T23:17:42.243Z,101940.86
2022-12-18T23:22:47.160Z,101939.16
2022-12-18T23:27:52.292Z,101931.67
2022-12-18T23:32:57.085Z,101928.41
2022-12-18T23:38:01.613Z,101928.36
2022-12-18T23:43:06.605Z,101922.81
2022-12-18T23:48:10.943Z,101922.23
2022-12-18T23:53:16.571Z,101921.04
2022-12-18T23:58:22.410Z,101916.21
